Medina, Tennessee
Current Conditions -  °F | °C
As of 2:53 PM on Monday 22 Dec 2014 (Local Time) from KMKL Reporting Station
Overcast Overcast  
Wind Chill: 56°   Ceiling: 1200
Heat Index: 56°   Visibility: 10mi
Dew Point: 50°   Wind: 12mph
Humidity: 80%   Direction: 150°SSE
Pressure: 29.66"   Gusts: 18mph
Location:  35.8°N, 88.77°W
Report Text: KMKL 222053Z 15010G16KT 10SM OVC012 13/10 A2966 RMK AO2 SLP042 T01330100 56034
Loading
Personal Weather Stations






























Interactive Weather Map New forecast layout! Learn more

10-Day Weather Forecast

Advertisements
Track Severe Weather on mobile